createdAt,value
2022-12-20T00:05:34.941Z,68.35
2022-12-20T00:12:09.546Z,68.20
2022-12-20T00:14:44.871Z,68.24
2022-12-20T00:17:17.422Z,68.17
2022-12-20T00:19:51.666Z,68.20
2022-12-20T00:22:26.098Z,68.04
2022-12-20T00:25:01.981Z,67.78
2022-12-20T00:44:21.004Z,68.56
2022-12-20T00:50:44.767Z,68.42
2022-12-20T00:53:35.268Z,69.00
2022-12-20T00:56:09.671Z,69.44
2022-12-20T00:58:43.205Z,69.87
2022-12-20T01:01:18.424Z,69.76
2022-12-20T01:03:50.161Z,70.11
2022-12-20T01:06:20.010Z,70.36
2022-12-20T01:08:50.742Z,69.90
2022-12-20T01:11:29.142Z,69.85
2022-12-20T01:14:00.707Z,69.69
2022-12-20T01:16:40.388Z,69.80
2022-12-20T01:22:13.527Z,69.90
2022-12-20T01:24:43.235Z,69.93
2022-12-20T01:27:16.867Z,69.80
2022-12-20T01:29:52.543Z,70.04
2022-12-20T01:32:22.881Z,69.86
2022-12-20T01:34:57.956Z,69.90
2022-12-20T01:37:35.115Z,70.19
2022-12-20T01:40:49.750Z,70.06
2022-12-20T01:44:03.305Z,70.12
2022-12-20T01:46:41.005Z,69.48
2022-12-20T01:49:27.068Z,70.11
2022-12-20T01:51:58.857Z,69.41
2022-12-20T01:54:44.628Z,69.60
2022-12-20T02:00:46.270Z,69.54
2022-12-20T02:03:57.468Z,69.52
2022-12-20T02:06:57.682Z,69.50
2022-12-20T02:10:29.040Z,69.07
2022-12-20T02:13:09.161Z,69.16
2022-12-20T02:15:42.827Z,69.18
2022-12-20T02:18:19.127Z,69.29
2022-12-20T02:20:56.842Z,69.31
2022-12-20T02:28:25.637Z,69.42
2022-12-20T02:30:59.289Z,69.01
2022-12-20T02:33:31.675Z,68.66
2022-12-20T02:36:03.614Z,68.61
2022-12-20T02:38:53.357Z,68.65
2022-12-20T02:41:28.323Z,68.66
2022-12-20T02:44:52.695Z,68.58
2022-12-20T03:00:32.801Z,68.96
2022-12-20T03:03:22.879Z,68.46
2022-12-20T03:07:00.261Z,68.54
2022-12-20T03:09:34.529Z,68.13
2022-12-20T03:12:06.134Z,68.21
2022-12-20T03:19:53.786Z,67.68
2022-12-20T03:26:53.609Z,67.85
2022-12-20T03:37:50.318Z,67.19
2022-12-20T03:40:29.179Z,66.85
2022-12-20T03:42:59.797Z,67.05
2022-12-20T03:45:51.760Z,66.76
2022-12-20T03:48:28.648Z,66.65
2022-12-20T03:54:38.440Z,66.73
2022-12-20T03:57:27.146Z,66.46
2022-12-20T04:00:03.263Z,66.64
2022-12-20T04:05:49.971Z,66.80
2022-12-20T04:17:48.199Z,67.53
2022-12-20T04:20:30.060Z,67.57
2022-12-20T04:23:16.393Z,67.33
2022-12-20T04:26:46.909Z,67.53
2022-12-20T04:29:39.826Z,67.80
2022-12-20T04:32:14.462Z,67.56
2022-12-20T04:38:06.844Z,67.66
2022-12-20T04:40:49.723Z,67.44
2022-12-20T04:43:28.489Z,67.57
2022-12-20T04:46:13.025Z,67.51
2022-12-20T04:49:10.817Z,67.60
2022-12-20T04:51:53.316Z,67.65
2022-12-20T04:54:36.066Z,68.21
2022-12-20T04:57:18.642Z,68.11
2022-12-20T04:59:58.642Z,67.96
2022-12-20T05:02:38.413Z,68.42
2022-12-20T05:05:12.056Z,68.47
2022-12-20T05:07:52.361Z,68.76
2022-12-20T05:10:22.644Z,68.63
2022-12-20T05:12:55.983Z,68.42
2022-12-20T05:15:38.176Z,68.40
2022-12-20T05:18:07.323Z,68.46
2022-12-20T05:20:48.505Z,68.42
2022-12-20T05:23:35.727Z,68.25
2022-12-20T05:26:18.874Z,68.30
2022-12-20T05:28:52.350Z,68.23
2022-12-20T05:31:27.189Z,68.12
2022-12-20T05:33:59.650Z,67.97
2022-12-20T05:36:34.936Z,68.10
2022-12-20T05:39:09.379Z,68.14
2022-12-20T05:41:43.052Z,68.34
2022-12-20T05:44:15.624Z,68.33
2022-12-20T05:46:57.668Z,68.16
2022-12-20T05:49:38.896Z,68.41
2022-12-20T05:52:18.455Z,68.23
2022-12-20T05:55:01.576Z,68.38
2022-12-20T05:57:31.683Z,68.69
2022-12-20T06:00:04.461Z,68.66
2022-12-20T06:02:38.150Z,68.60
2022-12-20T06:05:11.410Z,68.04
2022-12-20T06:07:45.140Z,68.17
2022-12-20T06:10:56.712Z,68.22
2022-12-20T06:13:33.530Z,68.65
2022-12-20T06:16:05.272Z,68.10
2022-12-20T06:24:29.714Z,68.06
2022-12-20T06:27:17.083Z,68.25
2022-12-20T06:29:57.742Z,67.93
2022-12-20T06:32:30.427Z,68.25
2022-12-20T06:35:14.537Z,68.30
2022-12-20T06:37:45.025Z,68.29
2022-12-20T06:40:25.049Z,68.48
2022-12-20T06:43:09.973Z,68.29
2022-12-20T06:45:42.940Z,68.19
2022-12-20T06:51:07.166Z,67.92
2022-12-20T06:53:52.345Z,68.10
2022-12-20T06:56:56.705Z,67.78
2022-12-20T06:59:29.290Z,67.69
2022-12-20T07:02:02.993Z,67.69
2022-12-20T07:04:41.067Z,67.65
2022-12-20T07:07:11.773Z,67.46
2022-12-20T07:09:59.679Z,67.53
2022-12-20T07:12:31.280Z,67.82
2022-12-20T07:15:10.268Z,67.74
2022-12-20T07:17:53.161Z,67.50
2022-12-20T07:21:15.013Z,67.67
2022-12-20T07:23:58.809Z,67.56
2022-12-20T07:26:35.401Z,68.00
2022-12-20T07:29:17.084Z,67.77
2022-12-20T07:31:49.487Z,67.70
2022-12-20T07:34:22.085Z,67.62
2022-12-20T07:36:52.909Z,67.86
2022-12-20T07:39:24.717Z,68.11
2022-12-20T07:41:59.149Z,68.27
2022-12-20T07:44:28.048Z,68.10
2022-12-20T07:46:58.363Z,67.95
2022-12-20T07:49:38.311Z,68.20
2022-12-20T07:52:16.048Z,68.01
2022-12-20T07:54:53.845Z,67.66
2022-12-20T07:57:48.809Z,68.13
2022-12-20T08:00:29.961Z,67.89
2022-12-20T08:03:04.011Z,68.31
2022-12-20T08:05:45.467Z,67.91
2022-12-20T08:11:12.857Z,67.50
2022-12-20T08:13:46.544Z,67.44
2022-12-20T08:16:24.200Z,66.98
2022-12-20T08:19:01.423Z,67.25
2022-12-20T08:28:19.772Z,67.93
2022-12-20T08:31:05.441Z,67.92
2022-12-20T08:33:45.965Z,68.04
2022-12-20T08:36:23.673Z,68.25
2022-12-20T08:39:15.836Z,68.28
2022-12-20T08:48:02.297Z,68.05
2022-12-20T08:50:45.134Z,68.33
2022-12-20T08:53:49.407Z,67.99
2022-12-20T08:56:31.655Z,67.77
2022-12-20T08:59:06.432Z,67.57
2022-12-20T09:04:32.044Z,68.07
2022-12-20T09:10:23.005Z,68.06
2022-12-20T10:00:59.957Z,68.25
2022-12-20T10:15:03.447Z,67.99
2022-12-20T10:26:49.725Z,68.09
2022-12-20T10:34:38.124Z,68.10
2022-12-20T10:38:06.034Z,68.13
2022-12-20T10:58:38.031Z,68.36
2022-12-20T11:26:51.082Z,68.09
2022-12-20T12:23:30.549Z,66.71
2022-12-20T12:30:17.965Z,66.18
2022-12-20T13:34:56.176Z,62.84
2022-12-20T13:37:54.386Z,62.12
2022-12-20T13:40:32.775Z,62.11
2022-12-20T13:43:27.389Z,61.61
2022-12-20T13:50:27.517Z,61.45
2022-12-20T14:12:40.755Z,60.73
2022-12-20T16:12:20.430Z,61.12
2022-12-20T17:31:52.020Z,62.62
2022-12-20T17:34:37.745Z,62.38
2022-12-20T17:37:06.989Z,62.41
2022-12-20T17:48:06.067Z,62.18
2022-12-20T19:21:18.728Z,63.17
2022-12-20T19:23:56.299Z,63.18
2022-12-20T19:26:32.794Z,63.12
2022-12-20T19:29:47.193Z,63.24
2022-12-20T19:32:50.754Z,63.61
2022-12-20T19:38:43.092Z,63.60
2022-12-20T19:41:35.335Z,63.57
2022-12-20T19:44:18.928Z,63.63
2022-12-20T19:46:52.040Z,63.37
2022-12-20T19:49:28.979Z,63.71
2022-12-20T19:52:28.413Z,63.73
2022-12-20T19:55:30.223Z,63.93
2022-12-20T19:58:04.040Z,64.08
2022-12-20T20:00:44.936Z,63.86
2022-12-20T20:03:23.607Z,63.62
2022-12-20T20:05:57.324Z,64.03
2022-12-20T20:08:33.754Z,63.75
2022-12-20T20:11:21.929Z,63.91
2022-12-20T20:14:11.033Z,63.81
2022-12-20T20:16:41.628Z,63.83
2022-12-20T20:19:17.865Z,63.96
2022-12-20T20:22:04.304Z,63.94
2022-12-20T20:24:35.876Z,64.14
2022-12-20T20:27:33.024Z,63.81
2022-12-20T20:30:07.169Z,63.85
2022-12-20T20:32:39.865Z,63.79
2022-12-20T20:35:22.021Z,63.82
2022-12-20T20:41:23.049Z,63.79
2022-12-20T20:48:06.083Z,64.24
2022-12-20T20:50:52.890Z,64.23
2022-12-20T20:53:37.762Z,64.32
2022-12-20T20:56:25.855Z,63.85
2022-12-20T21:01:42.552Z,63.75
2022-12-20T21:04:22.367Z,64.01
2022-12-20T21:10:07.245Z,64.10
2022-12-20T21:12:42.657Z,64.30
2022-12-20T21:15:23.943Z,64.00
2022-12-20T21:18:07.993Z,64.15
2022-12-20T21:20:52.704Z,63.98
2022-12-20T21:24:02.699Z,63.89
2022-12-20T21:27:07.820Z,64.14
2022-12-20T21:29:44.597Z,63.82
2022-12-20T21:32:43.552Z,64.18
2022-12-20T21:35:15.628Z,64.06
2022-12-20T21:37:55.767Z,63.83
2022-12-20T21:43:19.513Z,63.62
2022-12-20T21:46:01.857Z,63.94
2022-12-20T21:48:41.771Z,64.05
2022-12-20T21:51:16.943Z,63.57
2022-12-20T21:54:02.597Z,63.68
2022-12-20T21:59:28.549Z,63.65
2022-12-20T22:05:13.667Z,63.71
2022-12-20T22:07:50.404Z,63.47
2022-12-20T22:10:26.921Z,63.58
2022-12-20T22:13:03.938Z,63.51
2022-12-20T22:15:39.498Z,63.33
2022-12-20T22:18:23.464Z,63.70
2022-12-20T22:21:12.154Z,63.45
2022-12-20T22:23:48.140Z,63.36
2022-12-20T22:29:17.920Z,63.53
2022-12-20T22:31:59.004Z,63.67
2022-12-20T22:34:38.586Z,63.53
2022-12-20T22:37:14.858Z,63.37
2022-12-20T22:39:45.148Z,63.87
2022-12-20T22:42:21.793Z,63.70
2022-12-20T22:44:58.041Z,63.80
2022-12-20T22:47:37.158Z,63.47
2022-12-20T22:50:24.812Z,63.94
2022-12-20T22:53:12.750Z,63.44
2022-12-20T22:55:53.059Z,63.80
2022-12-20T22:58:43.467Z,63.58
2022-12-20T23:05:36.674Z,63.76
2022-12-20T23:11:46.306Z,63.73
2022-12-20T23:14:40.712Z,63.43
2022-12-20T23:17:14.212Z,63.51
2022-12-20T23:20:08.160Z,63.36
2022-12-20T23:22:45.386Z,63.50
2022-12-20T23:25:22.837Z,63.46
2022-12-20T23:27:53.819Z,63.66
2022-12-20T23:30:27.164Z,63.28
2022-12-20T23:32:58.235Z,63.50
2022-12-20T23:35:32.106Z,63.54
2022-12-20T23:38:08.833Z,63.71
2022-12-20T23:40:45.507Z,63.82
2022-12-20T23:43:46.690Z,63.49
2022-12-20T23:46:27.080Z,63.48
2022-12-20T23:49:04.523Z,63.86
2022-12-20T23:51:40.446Z,63.71
2022-12-20T23:54:29.833Z,63.98
2022-12-20T23:57:01.496Z,63.65
2022-12-20T23:59:39.174Z,63.59
